sensor_id;sensor_type;location;lat;lon;timestamp;P1;durP1;ratioP1;P2;durP2;ratioP2
23988;SDS011;12202;52.136;5.592;2022-08-07T00:01:19;4.25;;;3.50;;
23988;SDS011;12202;52.136;5.592;2022-08-07T00:03:45;5.57;;;3.80;;
23988;SDS011;12202;52.136;5.592;2022-08-07T00:06:11;5.45;;;3.53;;
23988;SDS011;12202;52.136;5.592;2022-08-07T00:08:38;11.98;;;5.28;;
23988;SDS011;12202;52.136;5.592;2022-08-07T00:11:04;9.48;;;3.97;;
23988;SDS011;12202;52.136;5.592;2022-08-07T00:13:30;7.07;;;3.88;;
23988;SDS011;12202;52.136;5.592;2022-08-07T00:15:57;5.97;;;4.10;;
23988;SDS011;12202;52.136;5.592;2022-08-07T00:18:24;7.13;;;4.05;;
23988;SDS011;12202;52.136;5.592;2022-08-07T00:20:51;5.75;;;3.50;;
23988;SDS011;12202;52.136;5.592;2022-08-07T00:23:17;6.45;;;4.18;;
23988;SDS011;12202;52.136;5.592;2022-08-07T00:25:44;6.55;;;4.68;;
23988;SDS011;12202;52.136;5.592;2022-08-07T00:28:10;8.02;;;4.30;;
23988;SDS011;12202;52.136;5.592;2022-08-07T00:30:36;9.45;;;4.80;;
23988;SDS011;12202;52.136;5.592;2022-08-07T00:33:02;7.30;;;4.75;;
23988;SDS011;12202;52.136;5.592;2022-08-07T00:35:28;8.82;;;4.85;;
23988;SDS011;12202;52.136;5.592;2022-08-07T00:37:54;5.72;;;4.80;;
23988;SDS011;12202;52.136;5.592;2022-08-07T00:40:20;7.93;;;4.60;;
23988;SDS011;12202;52.136;5.592;2022-08-07T00:42:46;5.53;;;4.25;;
23988;SDS011;12202;52.136;5.592;2022-08-07T00:45:12;9.57;;;4.15;;
23988;SDS011;12202;52.136;5.592;2022-08-07T00:47:38;8.57;;;5.03;;
23988;SDS011;12202;52.136;5.592;2022-08-07T00:50:05;9.43;;;4.53;;
23988;SDS011;12202;52.136;5.592;2022-08-07T00:52:31;7.47;;;4.70;;
23988;SDS011;12202;52.136;5.592;2022-08-07T00:54:57;11.00;;;4.68;;
23988;SDS011;12202;52.136;5.592;2022-08-07T00:57:23;7.70;;;4.88;;
23988;SDS011;12202;52.136;5.592;2022-08-07T00:59:50;8.63;;;4.70;;
23988;SDS011;12202;52.136;5.592;2022-08-07T01:02:16;8.20;;;5.47;;
23988;SDS011;12202;52.136;5.592;2022-08-07T01:04:42;6.35;;;4.97;;
23988;SDS011;12202;52.136;5.592;2022-08-07T01:07:08;7.25;;;5.20;;
23988;SDS011;12202;52.136;5.592;2022-08-07T01:09:34;8.57;;;5.03;;
23988;SDS011;12202;52.136;5.592;2022-08-07T01:12:00;8.25;;;5.68;;
23988;SDS011;12202;52.136;5.592;2022-08-07T01:14:26;8.13;;;5.30;;
23988;SDS011;12202;52.136;5.592;2022-08-07T01:16:52;8.32;;;5.05;;
23988;SDS011;12202;52.136;5.592;2022-08-07T01:19:19;7.75;;;4.90;;
23988;SDS011;12202;52.136;5.592;2022-08-07T01:21:46;8.43;;;4.75;;
23988;SDS011;12202;52.136;5.592;2022-08-07T01:24:12;7.30;;;5.75;;
23988;SDS011;12202;52.136;5.592;2022-08-07T01:26:38;10.05;;;5.75;;
23988;SDS011;12202;52.136;5.592;2022-08-07T01:29:05;8.00;;;4.82;;
23988;SDS011;12202;52.136;5.592;2022-08-07T01:31:31;7.10;;;5.63;;
23988;SDS011;12202;52.136;5.592;2022-08-07T01:33:57;8.57;;;5.57;;
23988;SDS011;12202;52.136;5.592;2022-08-07T01:36:24;9.98;;;5.78;;
23988;SDS011;12202;52.136;5.592;2022-08-07T01:38:51;8.13;;;5.63;;
23988;SDS011;12202;52.136;5.592;2022-08-07T01:41:17;12.77;;;5.75;;
23988;SDS011;12202;52.136;5.592;2022-08-07T01:43:44;7.95;;;5.82;;
23988;SDS011;12202;52.136;5.592;2022-08-07T01:46:10;9.73;;;6.20;;
23988;SDS011;12202;52.136;5.592;2022-08-07T01:48:36;9.18;;;5.20;;
23988;SDS011;12202;52.136;5.592;2022-08-07T01:51:03;12.40;;;6.65;;
23988;SDS011;12202;52.136;5.592;2022-08-07T01:53:32;9.65;;;5.72;;
23988;SDS011;12202;52.136;5.592;2022-08-07T01:56:02;7.60;;;5.75;;
23988;SDS011;12202;52.136;5.592;2022-08-07T01:58:32;11.13;;;5.78;;
23988;SDS011;12202;52.136;5.592;2022-08-07T02:01:03;10.93;;;6.00;;
23988;SDS011;12202;52.136;5.592;2022-08-07T02:03:29;11.80;;;5.95;;
23988;SDS011;12202;52.136;5.592;2022-08-07T02:06:01;7.32;;;5.10;;
23988;SDS011;12202;52.136;5.592;2022-08-07T02:08:28;10.02;;;5.80;;
23988;SDS011;12202;52.136;5.592;2022-08-07T02:10:55;10.63;;;6.55;;
23988;SDS011;12202;52.136;5.592;2022-08-07T02:13:24;10.20;;;6.63;;
23988;SDS011;12202;52.136;5.592;2022-08-07T02:15:51;10.55;;;7.05;;
23988;SDS011;12202;52.136;5.592;2022-08-07T02:18:17;7.88;;;6.50;;
23988;SDS011;12202;52.136;5.592;2022-08-07T02:20:44;9.27;;;6.25;;
23988;SDS011;12202;52.136;5.592;2022-08-07T02:23:12;9.20;;;6.25;;
23988;SDS011;12202;52.136;5.592;2022-08-07T02:25:38;8.02;;;6.25;;
23988;SDS011;12202;52.136;5.592;2022-08-07T02:28:05;14.07;;;6.40;;
23988;SDS011;12202;52.136;5.592;2022-08-07T02:30:32;8.85;;;5.72;;
23988;SDS011;12202;52.136;5.592;2022-08-07T02:32:58;11.07;;;6.53;;
23988;SDS011;12202;52.136;5.592;2022-08-07T02:35:25;11.35;;;6.63;;
23988;SDS011;12202;52.136;5.592;2022-08-07T02:40:29;7.53;;;5.45;;
23988;SDS011;12202;52.136;5.592;2022-08-07T02:42:56;7.95;;;5.18;;
23988;SDS011;12202;52.136;5.592;2022-08-07T02:45:23;9.65;;;5.85;;
23988;SDS011;12202;52.136;5.592;2022-08-07T02:47:50;8.40;;;6.10;;
23988;SDS011;12202;52.136;5.592;2022-08-07T02:50:16;9.52;;;6.28;;
23988;SDS011;12202;52.136;5.592;2022-08-07T02:53:04;7.05;;;5.43;;
23988;SDS011;12202;52.136;5.592;2022-08-07T02:55:28;10.07;;;6.60;;
23988;SDS011;12202;52.136;5.592;2022-08-07T02:57:57;8.02;;;6.28;;
23988;SDS011;12202;52.136;5.592;2022-08-07T03:00:24;12.05;;;5.93;;
23988;SDS011;12202;52.136;5.592;2022-08-07T03:02:51;7.80;;;6.07;;
23988;SDS011;12202;52.136;5.592;2022-08-07T03:05:17;8.32;;;5.88;;
23988;SDS011;12202;52.136;5.592;2022-08-07T03:07:44;9.30;;;6.15;;
23988;SDS011;12202;52.136;5.592;2022-08-07T03:10:11;10.38;;;6.03;;
23988;SDS011;12202;52.136;5.592;2022-08-07T03:12:37;5.97;;;5.20;;
23988;SDS011;12202;52.136;5.592;2022-08-07T03:15:03;8.60;;;6.22;;
23988;SDS011;12202;52.136;5.592;2022-08-07T03:17:30;8.43;;;6.05;;
23988;SDS011;12202;52.136;5.592;2022-08-07T03:19:57;10.57;;;5.70;;
23988;SDS011;12202;52.136;5.592;2022-08-07T03:22:23;9.38;;;6.40;;
23988;SDS011;12202;52.136;5.592;2022-08-07T03:24:49;11.77;;;6.10;;
23988;SDS011;12202;52.136;5.592;2022-08-07T03:27:15;12.63;;;6.72;;
23988;SDS011;12202;52.136;5.592;2022-08-07T03:29:52;12.10;;;6.53;;
23988;SDS011;12202;52.136;5.592;2022-08-07T03:32:20;8.38;;;6.20;;
23988;SDS011;12202;52.136;5.592;2022-08-07T03:34:47;9.30;;;6.78;;
23988;SDS011;12202;52.136;5.592;2022-08-07T03:37:13;10.65;;;5.45;;
23988;SDS011;12202;52.136;5.592;2022-08-07T03:39:40;9.25;;;6.53;;
23988;SDS011;12202;52.136;5.592;2022-08-07T03:42:07;10.70;;;6.85;;
23988;SDS011;12202;52.136;5.592;2022-08-07T03:44:33;10.18;;;6.28;;
23988;SDS011;12202;52.136;5.592;2022-08-07T03:46:59;14.10;;;6.30;;
23988;SDS011;12202;52.136;5.592;2022-08-07T03:49:26;8.38;;;6.25;;
23988;SDS011;12202;52.136;5.592;2022-08-07T03:51:52;9.60;;;5.95;;
23988;SDS011;12202;52.136;5.592;2022-08-07T03:54:18;12.18;;;6.43;;
23988;SDS011;12202;52.136;5.592;2022-08-07T03:56:44;7.75;;;5.82;;
23988;SDS011;12202;52.136;5.592;2022-08-07T03:59:11;8.07;;;6.68;;
23988;SDS011;12202;52.136;5.592;2022-08-07T04:01:39;13.13;;;6.07;;
23988;SDS011;12202;52.136;5.592;2022-08-07T04:04:05;10.00;;;6.15;;
23988;SDS011;12202;52.136;5.592;2022-08-07T04:06:31;8.13;;;5.65;;
23988;SDS011;12202;52.136;5.592;2022-08-07T04:08:58;9.90;;;6.38;;
23988;SDS011;12202;52.136;5.592;2022-08-07T04:11:24;8.88;;;6.53;;
23988;SDS011;12202;52.136;5.592;2022-08-07T04:13:50;10.05;;;6.55;;
23988;SDS011;12202;52.136;5.592;2022-08-07T04:16:16;12.57;;;6.72;;
23988;SDS011;12202;52.136;5.592;2022-08-07T04:18:42;10.07;;;6.25;;
23988;SDS011;12202;52.136;5.592;2022-08-07T04:21:08;12.02;;;6.85;;
23988;SDS011;12202;52.136;5.592;2022-08-07T04:23:34;11.52;;;7.32;;
23988;SDS011;12202;52.136;5.592;2022-08-07T04:26:00;9.77;;;6.63;;
23988;SDS011;12202;52.136;5.592;2022-08-07T04:28:27;10.40;;;7.43;;
23988;SDS011;12202;52.136;5.592;2022-08-07T04:30:53;10.48;;;7.20;;
23988;SDS011;12202;52.136;5.592;2022-08-07T04:33:19;10.82;;;7.20;;
23988;SDS011;12202;52.136;5.592;2022-08-07T04:35:45;14.15;;;7.35;;
23988;SDS011;12202;52.136;5.592;2022-08-07T04:38:12;12.45;;;7.60;;
23988;SDS011;12202;52.136;5.592;2022-08-07T04:40:39;14.20;;;7.55;;
23988;SDS011;12202;52.136;5.592;2022-08-07T04:43:05;11.70;;;7.82;;
23988;SDS011;12202;52.136;5.592;2022-08-07T04:48:06;14.82;;;7.50;;
23988;SDS011;12202;52.136;5.592;2022-08-07T04:50:38;9.82;;;6.65;;
23988;SDS011;12202;52.136;5.592;2022-08-07T04:53:06;12.35;;;7.30;;
23988;SDS011;12202;52.136;5.592;2022-08-07T04:55:49;16.88;;;7.55;;
23988;SDS011;12202;52.136;5.592;2022-08-07T04:58:21;11.93;;;6.85;;
23988;SDS011;12202;52.136;5.592;2022-08-07T05:03:54;8.30;;;6.82;;
23988;SDS011;12202;52.136;5.592;2022-08-07T05:06:31;9.98;;;7.32;;
23988;SDS011;12202;52.136;5.592;2022-08-07T05:11:45;20.77;;;12.95;;
23988;SDS011;12202;52.136;5.592;2022-08-07T05:14:13;21.02;;;11.25;;
23988;SDS011;12202;52.136;5.592;2022-08-07T05:16:40;16.08;;;9.55;;
23988;SDS011;12202;52.136;5.592;2022-08-07T05:19:12;12.60;;;8.15;;
23988;SDS011;12202;52.136;5.592;2022-08-07T05:21:42;13.05;;;8.57;;
23988;SDS011;12202;52.136;5.592;2022-08-07T05:24:09;12.15;;;8.63;;
23988;SDS011;12202;52.136;5.592;2022-08-07T05:26:36;14.35;;;9.60;;
23988;SDS011;12202;52.136;5.592;2022-08-07T05:29:03;13.25;;;8.35;;
23988;SDS011;12202;52.136;5.592;2022-08-07T05:31:32;12.93;;;9.07;;
23988;SDS011;12202;52.136;5.592;2022-08-07T05:33:59;12.32;;;8.38;;
23988;SDS011;12202;52.136;5.592;2022-08-07T05:36:26;12.23;;;7.82;;
23988;SDS011;12202;52.136;5.592;2022-08-07T05:38:53;12.80;;;7.45;;
23988;SDS011;12202;52.136;5.592;2022-08-07T05:41:19;18.92;;;8.80;;
23988;SDS011;12202;52.136;5.592;2022-08-07T05:43:49;14.18;;;8.85;;
23988;SDS011;12202;52.136;5.592;2022-08-07T05:46:15;16.88;;;9.77;;
23988;SDS011;12202;52.136;5.592;2022-08-07T05:48:43;22.35;;;9.75;;
23988;SDS011;12202;52.136;5.592;2022-08-07T05:51:09;16.67;;;9.80;;
23988;SDS011;12202;52.136;5.592;2022-08-07T05:53:36;34.65;;;11.43;;
23988;SDS011;12202;52.136;5.592;2022-08-07T05:56:02;17.50;;;9.57;;
23988;SDS011;12202;52.136;5.592;2022-08-07T05:58:29;20.58;;;9.82;;
23988;SDS011;12202;52.136;5.592;2022-08-07T06:00:55;18.38;;;10.02;;
23988;SDS011;12202;52.136;5.592;2022-08-07T06:03:22;17.63;;;10.23;;
23988;SDS011;12202;52.136;5.592;2022-08-07T06:05:49;18.15;;;11.35;;
23988;SDS011;12202;52.136;5.592;2022-08-07T06:08:15;22.70;;;11.38;;
23988;SDS011;12202;52.136;5.592;2022-08-07T06:10:41;20.85;;;11.38;;
23988;SDS011;12202;52.136;5.592;2022-08-07T06:13:08;19.45;;;10.80;;
23988;SDS011;12202;52.136;5.592;2022-08-07T06:15:34;26.38;;;12.25;;
23988;SDS011;12202;52.136;5.592;2022-08-07T06:18:01;19.27;;;12.43;;
23988;SDS011;12202;52.136;5.592;2022-08-07T06:20:27;18.95;;;12.07;;
23988;SDS011;12202;52.136;5.592;2022-08-07T06:22:54;26.55;;;13.60;;
23988;SDS011;12202;52.136;5.592;2022-08-07T06:25:21;28.77;;;14.70;;
23988;SDS011;12202;52.136;5.592;2022-08-07T06:27:47;30.83;;;15.43;;
23988;SDS011;12202;52.136;5.592;2022-08-07T06:30:13;31.02;;;15.93;;
23988;SDS011;12202;52.136;5.592;2022-08-07T06:32:39;25.20;;;14.27;;
23988;SDS011;12202;52.136;5.592;2022-08-07T06:35:05;22.80;;;13.95;;
23988;SDS011;12202;52.136;5.592;2022-08-07T06:37:31;30.42;;;15.35;;
23988;SDS011;12202;52.136;5.592;2022-08-07T06:39:57;28.15;;;16.77;;
23988;SDS011;12202;52.136;5.592;2022-08-07T06:42:31;29.30;;;16.20;;
23988;SDS011;12202;52.136;5.592;2022-08-07T06:45:02;26.33;;;14.40;;
23988;SDS011;12202;52.136;5.592;2022-08-07T06:47:28;28.08;;;15.50;;
23988;SDS011;12202;52.136;5.592;2022-08-07T06:49:55;24.75;;;14.40;;
23988;SDS011;12202;52.136;5.592;2022-08-07T06:52:21;26.23;;;14.98;;
23988;SDS011;12202;52.136;5.592;2022-08-07T06:54:47;21.85;;;14.85;;
23988;SDS011;12202;52.136;5.592;2022-08-07T06:57:14;27.40;;;15.13;;
23988;SDS011;12202;52.136;5.592;2022-08-07T06:59:41;26.15;;;14.55;;
23988;SDS011;12202;52.136;5.592;2022-08-07T07:02:13;30.38;;;15.20;;
23988;SDS011;12202;52.136;5.592;2022-08-07T07:04:42;25.73;;;14.77;;
23988;SDS011;12202;52.136;5.592;2022-08-07T07:07:08;22.83;;;14.77;;
23988;SDS011;12202;52.136;5.592;2022-08-07T07:09:34;21.60;;;13.40;;
23988;SDS011;12202;52.136;5.592;2022-08-07T07:14:36;21.45;;;13.52;;
23988;SDS011;12202;52.136;5.592;2022-08-07T07:17:08;25.70;;;13.73;;
23988;SDS011;12202;52.136;5.592;2022-08-07T07:19:37;23.77;;;12.85;;
23988;SDS011;12202;52.136;5.592;2022-08-07T07:22:05;18.52;;;11.23;;
23988;SDS011;12202;52.136;5.592;2022-08-07T07:24:32;20.63;;;12.95;;
23988;SDS011;12202;52.136;5.592;2022-08-07T07:26:58;18.65;;;11.95;;
23988;SDS011;12202;52.136;5.592;2022-08-07T07:29:26;17.83;;;11.32;;
23988;SDS011;12202;52.136;5.592;2022-08-07T07:32:01;18.35;;;10.90;;
23988;SDS011;12202;52.136;5.592;2022-08-07T07:34:28;15.40;;;9.23;;
23988;SDS011;12202;52.136;5.592;2022-08-07T07:36:55;12.55;;;8.23;;
23988;SDS011;12202;52.136;5.592;2022-08-07T07:39:22;11.40;;;7.45;;
23988;SDS011;12202;52.136;5.592;2022-08-07T07:41:49;11.95;;;6.68;;
23988;SDS011;12202;52.136;5.592;2022-08-07T07:44:15;9.25;;;6.40;;
23988;SDS011;12202;52.136;5.592;2022-08-07T07:46:43;8.10;;;5.00;;
23988;SDS011;12202;52.136;5.592;2022-08-07T07:49:10;8.95;;;5.05;;
23988;SDS011;12202;52.136;5.592;2022-08-07T07:51:36;8.52;;;5.32;;
23988;SDS011;12202;52.136;5.592;2022-08-07T07:54:03;9.88;;;4.75;;
23988;SDS011;12202;52.136;5.592;2022-08-07T07:56:30;5.97;;;4.15;;
23988;SDS011;12202;52.136;5.592;2022-08-07T07:59:00;8.23;;;4.60;;
23988;SDS011;12202;52.136;5.592;2022-08-07T08:01:28;7.68;;;4.90;;
23988;SDS011;12202;52.136;5.592;2022-08-07T08:03:56;7.05;;;4.20;;
23988;SDS011;12202;52.136;5.592;2022-08-07T08:06:23;7.32;;;4.15;;
23988;SDS011;12202;52.136;5.592;2022-08-07T08:08:49;6.90;;;4.20;;
23988;SDS011;12202;52.136;5.592;2022-08-07T08:11:16;6.78;;;4.50;;
23988;SDS011;12202;52.136;5.592;2022-08-07T08:13:43;9.07;;;5.00;;
23988;SDS011;12202;52.136;5.592;2022-08-07T08:16:11;9.02;;;4.70;;
23988;SDS011;12202;52.136;5.592;2022-08-07T08:18:41;8.07;;;5.07;;
23988;SDS011;12202;52.136;5.592;2022-08-07T08:21:07;8.32;;;5.40;;
23988;SDS011;12202;52.136;5.592;2022-08-07T08:23:53;7.57;;;5.15;;
23988;SDS011;12202;52.136;5.592;2022-08-07T08:26:38;8.82;;;5.10;;
23988;SDS011;12202;52.136;5.592;2022-08-07T08:29:24;8.45;;;5.35;;
23988;SDS011;12202;52.136;5.592;2022-08-07T08:31:51;9.23;;;5.97;;
23988;SDS011;12202;52.136;5.592;2022-08-07T08:34:18;7.82;;;5.28;;
23988;SDS011;12202;52.136;5.592;2022-08-07T08:36:48;7.55;;;5.05;;
23988;SDS011;12202;52.136;5.592;2022-08-07T08:39:14;7.80;;;5.78;;
23988;SDS011;12202;52.136;5.592;2022-08-07T08:41:42;7.88;;;5.65;;
23988;SDS011;12202;52.136;5.592;2022-08-07T08:44:16;10.38;;;6.47;;
23988;SDS011;12202;52.136;5.592;2022-08-07T08:46:46;12.43;;;6.10;;
23988;SDS011;12202;52.136;5.592;2022-08-07T08:52:17;6.65;;;4.95;;
23988;SDS011;12202;52.136;5.592;2022-08-07T08:54:55;10.60;;;5.38;;
23988;SDS011;12202;52.136;5.592;2022-08-07T08:58:25;9.85;;;5.72;;
23988;SDS011;12202;52.136;5.592;2022-08-07T09:00:18;11.27;;;5.60;;
23988;SDS011;12202;52.136;5.592;2022-08-07T09:05:18;6.40;;;4.65;;
23988;SDS011;12202;52.136;5.592;2022-08-07T09:07:58;10.63;;;4.70;;
23988;SDS011;12202;52.136;5.592;2022-08-07T09:10:42;5.15;;;4.20;;
23988;SDS011;12202;52.136;5.592;2022-08-07T09:13:28;8.27;;;4.97;;
23988;SDS011;12202;52.136;5.592;2022-08-07T09:16:02;7.93;;;4.25;;
23988;SDS011;12202;52.136;5.592;2022-08-07T09:21:21;8.07;;;4.43;;
23988;SDS011;12202;52.136;5.592;2022-08-07T09:23:54;6.85;;;3.83;;
23988;SDS011;12202;52.136;5.592;2022-08-07T09:26:24;5.47;;;4.10;;
23988;SDS011;12202;52.136;5.592;2022-08-07T09:28:58;8.27;;;4.40;;
23988;SDS011;12202;52.136;5.592;2022-08-07T09:37:11;6.65;;;3.55;;
23988;SDS011;12202;52.136;5.592;2022-08-07T09:39:49;7.50;;;3.85;;
23988;SDS011;12202;52.136;5.592;2022-08-07T09:48:08;5.03;;;4.22;;
23988;SDS011;12202;52.136;5.592;2022-08-07T09:53:02;2.97;;;2.17;;
23988;SDS011;12202;52.136;5.592;2022-08-07T09:55:51;5.15;;;2.88;;
23988;SDS011;12202;52.136;5.592;2022-08-07T10:03:44;4.22;;;2.67;;
23988;SDS011;12202;52.136;5.592;2022-08-07T10:09:10;6.40;;;3.55;;
23988;SDS011;12202;52.136;5.592;2022-08-07T10:16:54;3.35;;;2.83;;
23988;SDS011;12202;52.136;5.592;2022-08-07T10:19:32;4.22;;;2.90;;
23988;SDS011;12202;52.136;5.592;2022-08-07T10:29:46;3.00;;;2.25;;
23988;SDS011;12202;52.136;5.592;2022-08-07T10:40:28;6.50;;;2.10;;
23988;SDS011;12202;52.136;5.592;2022-08-07T10:45:51;6.97;;;2.97;;
23988;SDS011;12202;52.136;5.592;2022-08-07T10:50:53;2.97;;;2.05;;
23988;SDS011;12202;52.136;5.592;2022-08-07T10:53:27;3.90;;;2.42;;
23988;SDS011;12202;52.136;5.592;2022-08-07T10:58:56;3.90;;;2.42;;
23988;SDS011;12202;52.136;5.592;2022-08-07T11:09:22;3.70;;;1.70;;
23988;SDS011;12202;52.136;5.592;2022-08-07T11:12:03;4.95;;;2.30;;
23988;SDS011;12202;52.136;5.592;2022-08-07T11:17:06;2.58;;;2.05;;
23988;SDS011;12202;52.136;5.592;2022-08-07T11:19:41;4.93;;;2.13;;
23988;SDS011;12202;52.136;5.592;2022-08-07T11:32:03;3.00;;;2.25;;
23988;SDS011;12202;52.136;5.592;2022-08-07T11:45:17;6.40;;;2.40;;
23988;SDS011;12202;52.136;5.592;2022-08-07T11:52:48;3.67;;;2.03;;
23988;SDS011;12202;52.136;5.592;2022-08-07T11:55:36;5.38;;;1.95;;
23988;SDS011;12202;52.136;5.592;2022-08-07T11:58:17;3.67;;;1.80;;
23988;SDS011;12202;52.136;5.592;2022-08-07T12:00:54;5.07;;;2.28;;
23988;SDS011;12202;52.136;5.592;2022-08-07T12:10:51;6.35;;;1.42;;
23988;SDS011;12202;52.136;5.592;2022-08-07T12:13:31;4.80;;;1.42;;
23988;SDS011;12202;52.136;5.592;2022-08-07T12:16:20;1.77;;;1.23;;
23988;SDS011;12202;52.136;5.592;2022-08-07T12:18:51;2.17;;;1.30;;
23988;SDS011;12202;52.136;5.592;2022-08-07T12:23:51;2.90;;;1.50;;
23988;SDS011;12202;52.136;5.592;2022-08-07T12:26:30;3.15;;;1.40;;
23988;SDS011;12202;52.136;5.592;2022-08-07T12:29:06;3.70;;;1.67;;
23988;SDS011;12202;52.136;5.592;2022-08-07T12:31:38;5.72;;;1.75;;
23988;SDS011;12202;52.136;5.592;2022-08-07T12:34:05;4.63;;;1.63;;
23988;SDS011;12202;52.136;5.592;2022-08-07T12:36:34;2.38;;;1.38;;
23988;SDS011;12202;52.136;5.592;2022-08-07T12:39:02;2.75;;;1.70;;
23988;SDS011;12202;52.136;5.592;2022-08-07T12:41:29;2.72;;;1.35;;
23988;SDS011;12202;52.136;5.592;2022-08-07T12:43:55;1.98;;;1.27;;
23988;SDS011;12202;52.136;5.592;2022-08-07T12:46:29;3.90;;;1.30;;
23988;SDS011;12202;52.136;5.592;2022-08-07T12:51:27;1.50;;;1.38;;
23988;SDS011;12202;52.136;5.592;2022-08-07T12:53:57;3.45;;;1.20;;
23988;SDS011;12202;52.136;5.592;2022-08-07T12:56:35;3.17;;;2.33;;
23988;SDS011;12202;52.136;5.592;2022-08-07T12:59:03;2.05;;;1.77;;
23988;SDS011;12202;52.136;5.592;2022-08-07T13:07:05;3.13;;;1.58;;
23988;SDS011;12202;52.136;5.592;2022-08-07T13:09:44;2.33;;;1.90;;
23988;SDS011;12202;52.136;5.592;2022-08-07T13:14:41;3.58;;;2.45;;
23988;SDS011;12202;52.136;5.592;2022-08-07T13:17:12;6.07;;;3.10;;
23988;SDS011;12202;52.136;5.592;2022-08-07T13:19:49;4.60;;;3.10;;
23988;SDS011;12202;52.136;5.592;2022-08-07T13:22:18;5.75;;;2.63;;
23988;SDS011;12202;52.136;5.592;2022-08-07T13:25:02;7.53;;;2.58;;
23988;SDS011;12202;52.136;5.592;2022-08-07T13:27:30;4.63;;;2.65;;
23988;SDS011;12202;52.136;5.592;2022-08-07T13:30:03;4.07;;;2.70;;
23988;SDS011;12202;52.136;5.592;2022-08-07T13:32:31;4.68;;;2.80;;
23988;SDS011;12202;52.136;5.592;2022-08-07T13:35:07;4.75;;;2.80;;
23988;SDS011;12202;52.136;5.592;2022-08-07T13:37:51;4.47;;;2.72;;
23988;SDS011;12202;52.136;5.592;2022-08-07T13:42:48;8.13;;;3.72;;
23988;SDS011;12202;52.136;5.592;2022-08-07T13:45:15;5.72;;;3.95;;
23988;SDS011;12202;52.136;5.592;2022-08-07T13:47:41;7.68;;;3.60;;
23988;SDS011;12202;52.136;5.592;2022-08-07T13:50:08;4.03;;;3.47;;
23988;SDS011;12202;52.136;5.592;2022-08-07T13:52:37;5.75;;;3.42;;
23988;SDS011;12202;52.136;5.592;2022-08-07T13:55:07;6.03;;;3.85;;
23988;SDS011;12202;52.136;5.592;2022-08-07T13:57:33;4.40;;;2.78;;
23988;SDS011;12202;52.136;5.592;2022-08-07T14:00:02;5.68;;;3.05;;
23988;SDS011;12202;52.136;5.592;2022-08-07T14:02:32;5.38;;;3.25;;
23988;SDS011;12202;52.136;5.592;2022-08-07T14:05:01;5.97;;;3.10;;
23988;SDS011;12202;52.136;5.592;2022-08-07T14:07:33;7.45;;;2.75;;
23988;SDS011;12202;52.136;5.592;2022-08-07T14:10:02;4.07;;;2.97;;
23988;SDS011;12202;52.136;5.592;2022-08-07T14:15:18;5.13;;;3.35;;
23988;SDS011;12202;52.136;5.592;2022-08-07T14:17:44;7.18;;;3.53;;
23988;SDS011;12202;52.136;5.592;2022-08-07T14:20:21;4.95;;;2.78;;
23988;SDS011;12202;52.136;5.592;2022-08-07T14:22:50;4.47;;;2.50;;
23988;SDS011;12202;52.136;5.592;2022-08-07T14:25:17;2.17;;;1.98;;
23988;SDS011;12202;52.136;5.592;2022-08-07T14:27:47;3.97;;;2.13;;
23988;SDS011;12202;52.136;5.592;2022-08-07T14:30:15;3.65;;;1.58;;
23988;SDS011;12202;52.136;5.592;2022-08-07T14:32:46;3.53;;;2.25;;
23988;SDS011;12202;52.136;5.592;2022-08-07T14:35:17;5.85;;;2.03;;
23988;SDS011;12202;52.136;5.592;2022-08-07T14:37:48;2.95;;;1.60;;
23988;SDS011;12202;52.136;5.592;2022-08-07T14:40:17;2.45;;;1.63;;
23988;SDS011;12202;52.136;5.592;2022-08-07T14:42:45;3.28;;;1.80;;
23988;SDS011;12202;52.136;5.592;2022-08-07T14:45:17;3.22;;;1.48;;
23988;SDS011;12202;52.136;5.592;2022-08-07T14:47:43;7.68;;;1.63;;
23988;SDS011;12202;52.136;5.592;2022-08-07T14:50:11;2.97;;;1.40;;
23988;SDS011;12202;52.136;5.592;2022-08-07T14:52:43;4.35;;;1.30;;
23988;SDS011;12202;52.136;5.592;2022-08-07T14:55:09;1.60;;;1.40;;
23988;SDS011;12202;52.136;5.592;2022-08-07T14:57:36;4.70;;;2.65;;
23988;SDS011;12202;52.136;5.592;2022-08-07T15:00:03;3.65;;;1.65;;
23988;SDS011;12202;52.136;5.592;2022-08-07T15:02:32;4.43;;;1.35;;
23988;SDS011;12202;52.136;5.592;2022-08-07T15:04:58;4.68;;;1.20;;
23988;SDS011;12202;52.136;5.592;2022-08-07T15:07:24;2.10;;;1.10;;
23988;SDS011;12202;52.136;5.592;2022-08-07T15:09:54;1.73;;;1.38;;
23988;SDS011;12202;52.136;5.592;2022-08-07T15:12:22;3.80;;;1.45;;
23988;SDS011;12202;52.136;5.592;2022-08-07T15:14:49;8.32;;;2.05;;
23988;SDS011;12202;52.136;5.592;2022-08-07T15:17:17;2.78;;;1.42;;
23988;SDS011;12202;52.136;5.592;2022-08-07T15:19:48;1.48;;;1.25;;
23988;SDS011;12202;52.136;5.592;2022-08-07T15:22:17;1.73;;;1.40;;
23988;SDS011;12202;52.136;5.592;2022-08-07T15:24:48;4.25;;;2.00;;
23988;SDS011;12202;52.136;5.592;2022-08-07T15:27:16;3.10;;;1.70;;
23988;SDS011;12202;52.136;5.592;2022-08-07T15:29:47;2.08;;;1.20;;
23988;SDS011;12202;52.136;5.592;2022-08-07T15:32:14;1.52;;;1.25;;
23988;SDS011;12202;52.136;5.592;2022-08-07T15:34:52;4.75;;;1.88;;
23988;SDS011;12202;52.136;5.592;2022-08-07T15:37:20;4.40;;;2.05;;
23988;SDS011;12202;52.136;5.592;2022-08-07T15:39:47;3.47;;;1.95;;
23988;SDS011;12202;52.136;5.592;2022-08-07T15:45:00;4.10;;;2.00;;
23988;SDS011;12202;52.136;5.592;2022-08-07T15:47:27;5.13;;;2.10;;
23988;SDS011;12202;52.136;5.592;2022-08-07T15:49:57;3.35;;;1.80;;
23988;SDS011;12202;52.136;5.592;2022-08-07T15:52:24;4.45;;;1.77;;
23988;SDS011;12202;52.136;5.592;2022-08-07T15:54:53;3.28;;;2.08;;
23988;SDS011;12202;52.136;5.592;2022-08-07T15:57:25;4.03;;;2.42;;
23988;SDS011;12202;52.136;5.592;2022-08-07T15:59:54;4.22;;;1.98;;
23988;SDS011;12202;52.136;5.592;2022-08-07T16:02:30;2.83;;;1.85;;
23988;SDS011;12202;52.136;5.592;2022-08-07T16:05:02;4.50;;;2.15;;
23988;SDS011;12202;52.136;5.592;2022-08-07T16:07:31;3.95;;;2.03;;
23988;SDS011;12202;52.136;5.592;2022-08-07T16:10:16;4.78;;;2.22;;
23988;SDS011;12202;52.136;5.592;2022-08-07T16:15:43;3.20;;;2.42;;
23988;SDS011;12202;52.136;5.592;2022-08-07T16:28:56;5.15;;;2.90;;
23988;SDS011;12202;52.136;5.592;2022-08-07T16:32:07;7.50;;;2.88;;
23988;SDS011;12202;52.136;5.592;2022-08-07T16:34:17;4.45;;;2.67;;
23988;SDS011;12202;52.136;5.592;2022-08-07T16:42:09;3.55;;;2.60;;
23988;SDS011;12202;52.136;5.592;2022-08-07T16:47:30;4.63;;;2.60;;
23988;SDS011;12202;52.136;5.592;2022-08-07T16:50:10;3.00;;;2.67;;
23988;SDS011;12202;52.136;5.592;2022-08-07T16:55:12;7.63;;;3.28;;
23988;SDS011;12202;52.136;5.592;2022-08-07T16:57:52;12.23;;;3.08;;
23988;SDS011;12202;52.136;5.592;2022-08-07T17:00:18;10.40;;;3.13;;
23988;SDS011;12202;52.136;5.592;2022-08-07T17:07:56;3.63;;;2.88;;
23988;SDS011;12202;52.136;5.592;2022-08-07T17:10:45;7.90;;;3.13;;
23988;SDS011;12202;52.136;5.592;2022-08-07T17:15:58;7.00;;;3.30;;
23988;SDS011;12202;52.136;5.592;2022-08-07T17:18:27;4.68;;;3.30;;
23988;SDS011;12202;52.136;5.592;2022-08-07T17:20:54;4.55;;;2.53;;
23988;SDS011;12202;52.136;5.592;2022-08-07T17:31:21;6.70;;;3.65;;
23988;SDS011;12202;52.136;5.592;2022-08-07T17:33:58;11.93;;;4.07;;
23988;SDS011;12202;52.136;5.592;2022-08-07T17:36:29;6.30;;;4.15;;
23988;SDS011;12202;52.136;5.592;2022-08-07T17:39:00;9.85;;;4.28;;
23988;SDS011;12202;52.136;5.592;2022-08-07T17:41:41;5.93;;;4.30;;
23988;SDS011;12202;52.136;5.592;2022-08-07T17:44:10;8.82;;;4.15;;
23988;SDS011;12202;52.136;5.592;2022-08-07T17:46:42;8.15;;;3.72;;
23988;SDS011;12202;52.136;5.592;2022-08-07T17:49:28;7.97;;;3.85;;
23988;SDS011;12202;52.136;5.592;2022-08-07T17:51:55;7.28;;;4.15;;
23988;SDS011;12202;52.136;5.592;2022-08-07T17:59:51;8.15;;;4.05;;